createdAt,value
2023-07-23T00:01:18.995Z,21.20
2023-07-23T00:03:49.736Z,21.20
2023-07-23T00:06:20.878Z,21.20
2023-07-23T00:08:51.549Z,21.20
2023-07-23T00:11:24.702Z,21.20
2023-07-23T00:13:57.357Z,21.20
2023-07-23T00:16:28.212Z,21.10
2023-07-23T00:19:00.602Z,21.10
2023-07-23T00:21:31.267Z,21.10
2023-07-23T00:24:01.844Z,21.10
2023-07-23T00:26:34.930Z,21.10
2023-07-23T00:29:05.531Z,21.10
2023-07-23T00:31:36.203Z,21.10
2023-07-23T00:34:07.396Z,21.10
2023-07-23T00:36:37.976Z,21.10
2023-07-23T00:39:08.545Z,21.00
2023-07-23T00:41:41.781Z,21.00
2023-07-23T00:44:12.393Z,21.00
2023-07-23T00:46:43.009Z,21.00
2023-07-23T00:49:13.740Z,21.00
2023-07-23T00:51:44.737Z,21.00
2023-07-23T00:54:16.668Z,20.90
2023-07-23T00:56:51.146Z,20.90
2023-07-23T00:59:22.687Z,20.90
2023-07-23T01:01:53.436Z,20.90
2023-07-23T01:04:24.411Z,20.80
2023-07-23T01:06:56.307Z,20.90
2023-07-23T01:09:28.157Z,20.80
2023-07-23T01:12:03.051Z,20.90
2023-07-23T01:14:34.100Z,20.90
2023-07-23T01:17:05.033Z,20.90
2023-07-23T01:19:35.720Z,20.90
2023-07-23T01:22:10.043Z,20.90
2023-07-23T01:24:40.770Z,20.80
2023-07-23T01:27:11.354Z,20.80
2023-07-23T01:29:41.928Z,20.80
2023-07-23T01:32:12.429Z,20.80
2023-07-23T01:34:43.411Z,20.80
2023-07-23T01:37:17.449Z,20.80
2023-07-23T01:39:48.694Z,20.90
2023-07-23T01:42:20.295Z,20.80
2023-07-23T01:44:51.083Z,20.80
2023-07-23T01:47:22.098Z,20.80
2023-07-23T01:49:53.585Z,20.80
2023-07-23T01:52:27.159Z,20.80
2023-07-23T01:54:58.082Z,20.70
2023-07-23T01:57:28.568Z,20.80
2023-07-23T01:59:59.088Z,20.70
2023-07-23T02:02:29.738Z,20.70
2023-07-23T02:05:00.565Z,20.70
2023-07-23T02:07:33.739Z,20.70
2023-07-23T02:10:05.218Z,20.70
2023-07-23T02:12:37.231Z,20.60
2023-07-23T02:15:10.850Z,20.60
2023-07-23T02:17:41.750Z,20.70
2023-07-23T02:20:13.850Z,20.60
2023-07-23T02:22:48.383Z,20.60
2023-07-23T02:25:20.317Z,20.60
2023-07-23T02:27:50.826Z,20.60
2023-07-23T02:30:21.557Z,20.60
2023-07-23T02:32:52.139Z,20.60
2023-07-23T02:35:22.788Z,20.50
2023-07-23T02:37:56.065Z,20.60
2023-07-23T02:40:26.657Z,20.60
2023-07-23T02:42:57.146Z,20.60
2023-07-23T02:45:27.823Z,20.50
2023-07-23T02:47:58.317Z,20.50
2023-07-23T02:50:29.328Z,20.50
2023-07-23T02:53:02.466Z,20.50
2023-07-23T02:55:33.141Z,20.50
2023-07-23T02:58:05.497Z,20.50
2023-07-23T03:00:38.799Z,20.50
2023-07-23T03:03:10.325Z,20.40
2023-07-23T03:05:41.490Z,20.50
2023-07-23T03:08:14.665Z,20.50
2023-07-23T03:10:46.067Z,20.40
2023-07-23T03:13:16.696Z,20.40
2023-07-23T03:15:47.268Z,20.40
2023-07-23T03:18:17.847Z,20.40
2023-07-23T03:20:48.418Z,20.40
2023-07-23T03:23:21.886Z,20.40
2023-07-23T03:25:52.513Z,20.40
2023-07-23T03:28:23.100Z,20.40
2023-07-23T03:30:53.733Z,20.40
2023-07-23T03:33:24.293Z,20.40
2023-07-23T03:35:54.984Z,20.40
2023-07-23T03:38:28.249Z,20.40
2023-07-23T03:40:58.902Z,20.40
2023-07-23T03:43:29.424Z,20.50
2023-07-23T03:46:00.179Z,20.40
2023-07-23T03:48:30.759Z,20.40
2023-07-23T03:51:01.906Z,20.40
2023-07-23T03:53:35.101Z,20.30
2023-07-23T03:56:06.254Z,20.40
2023-07-23T03:58:37.139Z,20.30
2023-07-23T04:01:07.887Z,20.30
2023-07-23T04:03:38.440Z,20.20
2023-07-23T04:06:09.148Z,20.30
2023-07-23T04:08:42.476Z,20.30
2023-07-23T04:11:13.045Z,20.30
2023-07-23T04:13:43.588Z,20.20
2023-07-23T04:16:14.984Z,20.20
2023-07-23T04:18:55.996Z,20.20
2023-07-23T04:21:27.525Z,20.20
2023-07-23T04:24:02.057Z,20.20
2023-07-23T04:26:33.883Z,20.20
2023-07-23T04:29:04.702Z,20.20
2023-07-23T04:31:35.829Z,20.20
2023-07-23T04:34:06.391Z,20.20
2023-07-23T04:36:37.073Z,20.10
2023-07-23T04:39:11.263Z,20.20
2023-07-23T04:41:41.957Z,20.10
2023-07-23T04:44:12.504Z,20.00
2023-07-23T04:46:43.394Z,20.10
2023-07-23T04:49:14.018Z,20.00
2023-07-23T04:51:44.649Z,20.00
2023-07-23T04:54:17.804Z,20.00
2023-07-23T04:56:48.456Z,20.00
2023-07-23T04:59:19.094Z,20.00
2023-07-23T05:01:49.725Z,20.00
2023-07-23T05:04:20.179Z,20.10
2023-07-23T05:06:51.418Z,20.00
2023-07-23T05:09:24.713Z,19.90
2023-07-23T05:11:55.916Z,19.90
2023-07-23T05:14:26.549Z,19.90
2023-07-23T05:16:57.189Z,19.90
2023-07-23T05:19:27.831Z,19.90
2023-07-23T05:21:58.409Z,19.90
2023-07-23T05:24:31.543Z,19.90
2023-07-23T05:27:02.676Z,19.90
2023-07-23T05:29:33.230Z,19.90
2023-07-23T05:32:03.845Z,19.80
2023-07-23T05:34:34.306Z,19.80
2023-07-23T05:37:04.932Z,19.80
2023-07-23T05:39:38.082Z,19.90
2023-07-23T05:42:09.582Z,19.80
2023-07-23T05:44:40.213Z,19.80
2023-07-23T05:47:10.804Z,19.80
2023-07-23T05:49:41.317Z,19.70
2023-07-23T05:52:12.313Z,19.80
2023-07-23T05:54:47.570Z,19.80
2023-07-23T05:57:18.303Z,19.70
2023-07-23T05:59:48.781Z,19.70
2023-07-23T06:02:19.364Z,19.70
2023-07-23T06:04:49.841Z,19.70
2023-07-23T06:07:20.407Z,19.70
2023-07-23T06:09:53.457Z,19.80
2023-07-23T06:12:24.251Z,19.80
2023-07-23T06:14:54.867Z,19.70
2023-07-23T06:17:25.991Z,19.70
2023-07-23T06:19:56.524Z,19.60
2023-07-23T06:22:29.474Z,19.60
2023-07-23T06:25:02.600Z,19.60
2023-07-23T06:27:33.210Z,19.60
2023-07-23T06:30:03.776Z,19.50
2023-07-23T06:32:34.355Z,19.50
2023-07-23T06:35:06.769Z,19.50
2023-07-23T06:37:37.397Z,19.40
2023-07-23T06:40:14.630Z,19.40
2023-07-23T06:42:45.308Z,19.40
2023-07-23T06:45:15.934Z,19.40
2023-07-23T06:47:49.447Z,19.30
2023-07-23T06:50:20.624Z,19.30
2023-07-23T06:52:51.473Z,19.30
2023-07-23T06:55:24.725Z,19.30
2023-07-23T06:57:55.293Z,19.20
2023-07-23T07:00:25.966Z,19.20
2023-07-23T07:02:56.632Z,19.20
2023-07-23T07:05:28.444Z,19.20
2023-07-23T07:07:58.984Z,19.10
2023-07-23T07:10:32.082Z,19.10
2023-07-23T07:13:03.430Z,19.10
2023-07-23T07:15:34.049Z,19.10
2023-07-23T07:18:04.744Z,19.00
2023-07-23T07:20:35.224Z,19.10
2023-07-23T07:23:05.927Z,19.00
2023-07-23T07:25:40.533Z,19.00
2023-07-23T07:28:11.177Z,19.00
2023-07-23T07:30:44.022Z,19.00
2023-07-23T07:33:15.370Z,18.90
2023-07-23T07:35:46.382Z,18.90
2023-07-23T07:38:17.019Z,18.90
2023-07-23T07:40:52.520Z,18.90
2023-07-23T07:43:23.501Z,18.90
2023-07-23T07:45:55.672Z,18.90
2023-07-23T07:48:26.534Z,18.90
2023-07-23T07:51:02.611Z,18.90
2023-07-23T07:53:33.443Z,18.80
2023-07-23T07:56:09.456Z,18.80
2023-07-23T07:58:40.815Z,18.90
2023-07-23T08:01:11.984Z,18.90
2023-07-23T08:03:43.720Z,18.90
2023-07-23T08:06:15.836Z,18.90
2023-07-23T08:08:48.573Z,18.90
2023-07-23T08:11:22.439Z,18.90
2023-07-23T08:13:53.382Z,18.80
2023-07-23T08:16:24.256Z,18.90
2023-07-23T08:18:55.363Z,18.90
2023-07-23T08:21:27.010Z,18.90
2023-07-23T08:23:58.397Z,19.00
2023-07-23T08:26:34.239Z,19.00
2023-07-23T08:29:08.731Z,19.00
2023-07-23T08:31:39.677Z,19.00
2023-07-23T08:34:10.594Z,19.00
2023-07-23T08:36:41.663Z,19.00
2023-07-23T08:39:13.542Z,19.10
2023-07-23T08:42:11.699Z,19.20
2023-07-23T08:45:09.655Z,19.20
2023-07-23T08:47:42.569Z,19.30
2023-07-23T08:50:15.099Z,19.30
2023-07-23T08:52:46.540Z,19.30
2023-07-23T08:55:17.310Z,19.30
2023-07-23T08:57:50.895Z,19.30
2023-07-23T09:00:23.677Z,19.30
2023-07-23T09:02:55.819Z,19.30
2023-07-23T09:05:26.474Z,19.30
2023-07-23T09:07:57.772Z,19.30
2023-07-23T09:10:28.757Z,19.30
2023-07-23T09:13:01.865Z,19.20
2023-07-23T09:15:32.488Z,19.20
2023-07-23T09:18:03.273Z,19.30
2023-07-23T09:20:34.096Z,19.30
2023-07-23T09:23:09.902Z,19.30
2023-07-23T09:25:43.217Z,19.30
2023-07-23T09:28:25.151Z,19.30
2023-07-23T09:30:57.883Z,19.20
2023-07-23T09:33:36.942Z,19.20
2023-07-23T09:36:08.896Z,19.10
2023-07-23T09:38:46.978Z,19.20
2023-07-23T09:41:17.749Z,19.30
2023-07-23T09:43:50.961Z,19.30
2023-07-23T09:46:21.802Z,19.30
2023-07-23T09:48:52.796Z,19.30
2023-07-23T09:51:23.575Z,19.30
2023-07-23T09:53:54.220Z,19.30
2023-07-23T09:56:26.461Z,19.30
2023-07-23T09:59:02.172Z,19.40
2023-07-23T10:01:33.428Z,19.40
2023-07-23T10:04:05.432Z,19.50
2023-07-23T10:06:36.002Z,19.40
2023-07-23T10:09:07.209Z,19.50
2023-07-23T10:11:38.261Z,19.50
2023-07-23T10:14:11.447Z,19.60
2023-07-23T10:16:45.210Z,19.60
2023-07-23T10:19:17.749Z,19.70
2023-07-23T10:21:52.510Z,19.70
2023-07-23T10:24:23.155Z,19.80
2023-07-23T10:26:56.025Z,19.80
2023-07-23T10:29:29.928Z,19.80
2023-07-23T10:32:28.474Z,19.90
2023-07-23T10:34:59.461Z,20.00
2023-07-23T10:37:30.038Z,20.20
2023-07-23T10:40:01.808Z,20.30
2023-07-23T10:42:46.375Z,20.30
2023-07-23T10:45:29.765Z,20.40
2023-07-23T10:48:02.488Z,20.40
2023-07-23T10:50:35.044Z,20.40
2023-07-23T10:53:07.323Z,20.40
2023-07-23T10:55:41.150Z,20.50
2023-07-23T10:58:15.639Z,20.50
2023-07-23T11:00:50.563Z,20.60
2023-07-23T11:03:24.112Z,20.70
2023-07-23T11:05:55.691Z,20.80
2023-07-23T11:08:28.416Z,20.90
2023-07-23T11:11:01.770Z,20.90
2023-07-23T11:13:37.540Z,21.00
2023-07-23T11:16:10.892Z,21.00
2023-07-23T11:18:41.528Z,21.10
2023-07-23T11:21:15.735Z,21.00
2023-07-23T11:23:46.440Z,21.10
2023-07-23T11:26:19.917Z,21.10
2023-07-23T11:28:51.694Z,21.40
2023-07-23T11:31:25.902Z,21.40
2023-07-23T11:33:58.215Z,21.40
2023-07-23T11:36:28.789Z,21.60
2023-07-23T11:38:59.587Z,21.60
2023-07-23T11:41:39.275Z,21.60
2023-07-23T11:44:11.572Z,21.70
2023-07-23T11:46:45.573Z,21.60
2023-07-23T11:49:18.637Z,21.60
2023-07-23T11:51:49.333Z,21.60
2023-07-23T11:54:20.924Z,21.70
2023-07-23T11:56:51.494Z,22.00
2023-07-23T11:59:22.918Z,21.90
2023-07-23T12:02:01.188Z,21.90
2023-07-23T12:04:31.815Z,21.90
2023-07-23T12:07:02.406Z,21.80
2023-07-23T12:09:33.084Z,21.80
2023-07-23T12:12:04.277Z,21.90
2023-07-23T12:14:34.940Z,22.10
2023-07-23T12:17:08.592Z,22.20
2023-07-23T12:19:45.856Z,22.30
2023-07-23T12:22:16.502Z,22.40
2023-07-23T12:24:47.515Z,22.50
2023-07-23T12:27:20.011Z,22.40
2023-07-23T12:29:51.987Z,22.50
2023-07-23T12:32:25.522Z,22.50
2023-07-23T12:34:56.189Z,22.50
2023-07-23T12:37:27.698Z,22.50
2023-07-23T12:39:59.445Z,22.40
2023-07-23T12:42:30.009Z,22.50
2023-07-23T12:45:00.661Z,22.70
2023-07-23T12:47:34.733Z,22.90
2023-07-23T12:50:05.397Z,23.00
2023-07-23T12:52:35.889Z,23.00
2023-07-23T12:55:06.668Z,23.10
2023-07-23T12:57:37.217Z,23.60
2023-07-23T13:00:09.173Z,23.80
2023-07-23T13:02:42.520Z,23.80
2023-07-23T13:05:13.258Z,23.80
2023-07-23T13:07:43.787Z,23.80
2023-07-23T13:10:14.719Z,23.60
2023-07-23T13:12:45.353Z,23.70
2023-07-23T13:15:15.969Z,23.70
2023-07-23T13:17:51.186Z,23.60
2023-07-23T13:20:21.912Z,23.50
2023-07-23T13:22:52.422Z,23.50
2023-07-23T13:25:23.446Z,23.70
2023-07-23T13:27:54.000Z,23.70
2023-07-23T13:30:24.664Z,23.80
2023-07-23T13:32:57.854Z,23.90
2023-07-23T13:35:28.621Z,23.90
2023-07-23T13:37:59.165Z,24.10
2023-07-23T13:40:29.887Z,24.20
2023-07-23T13:43:01.415Z,24.40
2023-07-23T13:45:32.132Z,24.50
2023-07-23T13:48:05.381Z,24.60
2023-07-23T13:50:45.305Z,24.60
2023-07-23T13:53:21.389Z,24.70
2023-07-23T13:55:52.779Z,24.40
2023-07-23T13:58:23.446Z,24.40
2023-07-23T14:00:54.132Z,24.40
2023-07-23T14:03:27.726Z,24.40
2023-07-23T14:05:58.390Z,24.30
2023-07-23T14:08:28.985Z,24.40
2023-07-23T14:10:59.561Z,24.40
2023-07-23T14:13:30.005Z,24.30
2023-07-23T14:16:00.660Z,24.30
2023-07-23T14:18:33.773Z,24.30
2023-07-23T14:21:04.800Z,24.30
2023-07-23T14:23:36.353Z,24.40
2023-07-23T14:26:06.961Z,24.60
2023-07-23T14:28:38.017Z,24.50
2023-07-23T14:31:09.343Z,24.70
2023-07-23T14:33:43.527Z,24.80
2023-07-23T14:36:14.156Z,24.70
2023-07-23T14:38:44.651Z,24.70
2023-07-23T14:41:15.404Z,24.60
2023-07-23T14:43:46.096Z,24.40
2023-07-23T14:46:16.716Z,24.50
2023-07-23T14:48:49.902Z,24.60
2023-07-23T14:51:20.500Z,24.60
2023-07-23T14:53:51.199Z,24.50
2023-07-23T14:56:22.004Z,24.60
2023-07-23T14:58:52.494Z,24.50
2023-07-23T15:01:23.137Z,24.40
2023-07-23T15:03:56.604Z,24.40
2023-07-23T15:06:27.300Z,24.40
2023-07-23T15:08:57.833Z,24.30
2023-07-23T15:11:29.603Z,24.30
2023-07-23T15:14:01.138Z,24.40
2023-07-23T15:16:32.327Z,24.50
2023-07-23T15:19:06.513Z,24.50
2023-07-23T15:21:37.978Z,24.40
2023-07-23T15:24:16.428Z,24.40
2023-07-23T15:26:48.273Z,24.40
2023-07-23T15:29:19.725Z,24.40
2023-07-23T15:31:50.442Z,24.40
2023-07-23T15:34:23.703Z,24.40
2023-07-23T15:36:54.328Z,24.40
2023-07-23T15:39:24.922Z,24.40
2023-07-23T15:41:55.619Z,24.30
2023-07-23T15:44:26.107Z,24.30
2023-07-23T15:46:56.741Z,24.30
2023-07-23T15:49:29.898Z,24.20
2023-07-23T15:52:02.879Z,24.20
2023-07-23T15:54:33.752Z,24.20
2023-07-23T15:57:04.387Z,24.10
2023-07-23T15:59:35.205Z,24.10
2023-07-23T16:02:05.763Z,24.00
2023-07-23T16:04:39.476Z,23.90
2023-07-23T16:07:10.553Z,23.80
2023-07-23T16:09:41.380Z,23.70
2023-07-23T16:12:12.908Z,23.80
2023-07-23T16:14:43.382Z,23.70
2023-07-23T16:17:13.993Z,23.60
2023-07-23T16:19:47.279Z,23.50
2023-07-23T16:22:17.856Z,23.30
2023-07-23T16:24:48.388Z,23.50
2023-07-23T16:27:19.031Z,23.40
2023-07-23T16:29:49.506Z,23.40
2023-07-23T16:32:20.963Z,23.30
2023-07-23T16:34:54.913Z,23.30
2023-07-23T16:37:26.644Z,23.20
2023-07-23T16:39:57.911Z,23.10
2023-07-23T16:42:32.341Z,23.00
2023-07-23T16:45:06.358Z,23.00
2023-07-23T16:47:36.997Z,22.90
2023-07-23T16:50:11.052Z,22.90
2023-07-23T16:52:42.025Z,22.90
2023-07-23T16:55:13.184Z,22.80
2023-07-23T16:57:44.092Z,22.80
2023-07-23T17:00:15.788Z,22.80
2023-07-23T17:02:46.426Z,22.80
2023-07-23T17:05:19.563Z,22.80
2023-07-23T17:07:50.301Z,22.80
2023-07-23T17:10:21.073Z,22.70
2023-07-23T17:12:51.649Z,22.70
2023-07-23T17:15:22.132Z,22.80
2023-07-23T17:17:53.043Z,22.70
2023-07-23T17:20:26.344Z,22.70
2023-07-23T17:22:57.044Z,22.70
2023-07-23T17:25:27.708Z,22.60
2023-07-23T17:27:58.398Z,22.60
2023-07-23T17:30:28.931Z,22.60
2023-07-23T17:32:59.577Z,22.60
2023-07-23T17:35:32.885Z,22.50
2023-07-23T17:38:03.532Z,22.50
2023-07-23T17:40:34.041Z,22.50
2023-07-23T17:43:04.671Z,22.50
2023-07-23T17:45:35.240Z,22.40
2023-07-23T17:48:05.886Z,22.40
2023-07-23T17:50:39.155Z,22.40
2023-07-23T17:53:09.923Z,22.30
2023-07-23T17:55:40.534Z,22.20
2023-07-23T17:58:11.170Z,22.40
2023-07-23T18:00:44.770Z,22.20
2023-07-23T18:03:15.309Z,22.20
2023-07-23T18:05:54.286Z,22.20
2023-07-23T18:08:25.141Z,22.20
2023-07-23T18:10:55.772Z,22.10
2023-07-23T18:13:28.015Z,22.10
2023-07-23T18:15:58.579Z,22.00
2023-07-23T18:18:30.084Z,21.90
2023-07-23T18:21:03.398Z,21.80
2023-07-23T18:23:34.190Z,21.80
2023-07-23T18:26:06.322Z,21.70
2023-07-23T18:28:37.792Z,21.80
2023-07-23T18:31:15.144Z,21.70
2023-07-23T18:33:55.700Z,21.80
2023-07-23T18:36:29.284Z,21.70
2023-07-23T18:39:00.286Z,21.70
2023-07-23T18:41:34.275Z,21.60
2023-07-23T18:44:05.506Z,21.70
2023-07-23T18:46:36.204Z,21.60
2023-07-23T18:49:06.885Z,21.60
2023-07-23T18:51:40.245Z,21.50
2023-07-23T18:54:11.071Z,21.50
2023-07-23T18:56:41.770Z,21.40
2023-07-23T18:59:12.428Z,21.30
2023-07-23T19:01:43.163Z,21.30
2023-07-23T19:04:13.939Z,21.20
2023-07-23T19:06:47.103Z,21.20
2023-07-23T19:09:17.740Z,21.20
2023-07-23T19:11:48.202Z,21.20
2023-07-23T19:14:18.733Z,21.20
2023-07-23T19:16:49.238Z,21.10
2023-07-23T19:19:19.980Z,21.10
2023-07-23T19:21:53.151Z,21.10
2023-07-23T19:24:23.833Z,21.10
2023-07-23T19:26:54.396Z,21.10
2023-07-23T19:29:24.997Z,21.10
2023-07-23T19:31:55.505Z,21.00
2023-07-23T19:34:26.086Z,21.10
2023-07-23T19:36:59.392Z,21.10
2023-07-23T19:39:30.069Z,21.00
2023-07-23T19:42:00.560Z,21.10
2023-07-23T19:44:31.174Z,21.10
2023-07-23T19:47:01.717Z,21.10
2023-07-23T19:49:32.245Z,21.00
2023-07-23T19:52:05.355Z,21.00
2023-07-23T19:54:36.143Z,21.10
2023-07-23T19:57:06.934Z,21.00
2023-07-23T19:59:40.524Z,21.00
2023-07-23T20:02:11.426Z,21.00
2023-07-23T20:04:46.373Z,20.90
2023-07-23T20:07:19.563Z,21.00
2023-07-23T20:09:50.191Z,21.00
2023-07-23T20:12:20.770Z,21.00
2023-07-23T20:14:51.461Z,20.90
2023-07-23T20:17:22.045Z,21.00
2023-07-23T20:19:53.078Z,21.00
2023-07-23T20:22:26.279Z,21.00
2023-07-23T20:24:57.011Z,21.00
2023-07-23T20:27:28.015Z,20.90
2023-07-23T20:29:59.679Z,20.90
2023-07-23T20:32:31.646Z,20.80
2023-07-23T20:35:03.020Z,20.90
2023-07-23T20:37:37.096Z,20.90
2023-07-23T20:40:09.289Z,20.90
2023-07-23T20:42:40.663Z,20.90
2023-07-23T20:45:12.917Z,20.90
2023-07-23T20:47:43.479Z,20.90
2023-07-23T20:50:14.376Z,20.90
2023-07-23T20:52:47.650Z,20.90
2023-07-23T20:55:18.264Z,20.80
2023-07-23T20:57:48.817Z,20.80
2023-07-23T21:00:19.708Z,20.80
2023-07-23T21:02:52.659Z,20.80
2023-07-23T21:05:23.288Z,20.80
2023-07-23T21:07:56.400Z,20.80
2023-07-23T21:10:27.002Z,20.80
2023-07-23T21:12:57.513Z,20.70
2023-07-23T21:15:32.525Z,20.80
2023-07-23T21:18:03.642Z,20.80
2023-07-23T21:20:34.631Z,20.70
2023-07-23T21:23:07.838Z,20.70
2023-07-23T21:25:38.632Z,20.70
2023-07-23T21:28:09.211Z,20.70
2023-07-23T21:30:39.934Z,20.70
2023-07-23T21:33:12.371Z,20.70
2023-07-23T21:35:44.149Z,20.70
2023-07-23T21:38:17.366Z,20.70
2023-07-23T21:40:47.917Z,20.70
2023-07-23T21:43:18.476Z,20.70
2023-07-23T21:45:51.597Z,20.70
2023-07-23T21:48:22.384Z,20.80
2023-07-23T21:50:53.022Z,20.70
2023-07-23T21:53:26.287Z,20.70
2023-07-23T21:55:56.908Z,20.70
2023-07-23T21:58:27.459Z,20.70
2023-07-23T22:00:58.066Z,20.70
2023-07-23T22:03:28.742Z,20.70
2023-07-23T22:06:00.301Z,20.70
2023-07-23T22:08:33.485Z,20.60
2023-07-23T22:11:04.137Z,20.60
2023-07-23T22:13:34.656Z,20.60
2023-07-23T22:16:05.370Z,20.60
2023-07-23T22:18:36.152Z,20.60
2023-07-23T22:21:06.892Z,20.60
2023-07-23T22:23:40.047Z,20.50
2023-07-23T22:26:10.677Z,20.50
2023-07-23T22:28:41.178Z,20.50
2023-07-23T22:31:11.912Z,20.60
2023-07-23T22:33:45.591Z,20.50
2023-07-23T22:36:16.289Z,20.50
2023-07-23T22:38:49.371Z,20.40
2023-07-23T22:41:20.004Z,20.50
2023-07-23T22:43:55.650Z,20.50
2023-07-23T22:46:27.553Z,20.50
2023-07-23T22:48:58.059Z,20.50
2023-07-23T22:51:28.688Z,20.50
2023-07-23T22:54:01.783Z,20.50
2023-07-23T22:56:32.597Z,20.50
2023-07-23T22:59:03.824Z,20.40
2023-07-23T23:01:34.605Z,20.40
2023-07-23T23:04:05.177Z,20.50
2023-07-23T23:06:35.905Z,20.40
2023-07-23T23:09:09.006Z,20.40
2023-07-23T23:11:40.276Z,20.40
2023-07-23T23:14:10.899Z,20.40
2023-07-23T23:16:41.796Z,20.40
2023-07-23T23:19:12.376Z,20.40
2023-07-23T23:21:43.077Z,20.40
2023-07-23T23:24:16.229Z,20.40
2023-07-23T23:26:46.804Z,20.40
2023-07-23T23:29:17.277Z,20.40
2023-07-23T23:31:47.864Z,20.40
2023-07-23T23:34:18.360Z,20.40
2023-07-23T23:36:49.039Z,20.40
2023-07-23T23:39:22.542Z,20.40
2023-07-23T23:41:53.176Z,20.40
2023-07-23T23:44:23.653Z,20.40
2023-07-23T23:46:54.261Z,20.30
2023-07-23T23:49:24.784Z,20.40
2023-07-23T23:51:55.451Z,20.40
2023-07-23T23:54:28.598Z,20.30
2023-07-23T23:57:02.515Z,20.40
2023-07-23T23:59:33.474Z,20.40
